Rome, Georgia
Current Conditions -  °F | °C
As of 6:53 PM on Wednesday 28 Jan 2015 (Local Time) from KRMG Reporting Station
Clear Clear  
Wind Chill:   Ceiling: Unl
Heat Index:   Visibility: 10mi
Dew Point: -4°   Wind: 0mph
Humidity: 44%   Direction: NA
Pressure: 30.23"   Gusts: NA
Location:  34.25°N, 85.17°W
Report Text: KRMG 282353Z AUTO 00000KT 10SM CLR 07/M04 A3023 RMK AO2 SLP237 T00721044 10122 20067 55002
Loading
Personal Weather Stations






























Interactive Weather Map New forecast layout! Learn more

10-Day Weather Forecast

Advertisements
Track Severe Weather on mobile